sensor_id;sensor_type;location;lat;lon;timestamp;P1;durP1;ratioP1;P2;durP2;ratioP2
12912;SDS011;6524;51.368;11.984;2023-05-14T00:17:23;7.13;;;6.43;;
12912;SDS011;6524;51.368;11.984;2023-05-14T00:22:23;6.95;;;6.35;;
12912;SDS011;6524;51.368;11.984;2023-05-14T00:27:24;6.85;;;6.18;;
12912;SDS011;6524;51.368;11.984;2023-05-14T00:32:25;6.70;;;6.10;;
12912;SDS011;6524;51.368;11.984;2023-05-14T00:37:25;7.20;;;6.60;;
12912;SDS011;6524;51.368;11.984;2023-05-14T00:42:25;7.10;;;6.30;;
12912;SDS011;6524;51.368;11.984;2023-05-14T04:02:27;8.57;;;7.88;;
12912;SDS011;6524;51.368;11.984;2023-05-14T04:07:28;8.68;;;7.88;;
12912;SDS011;6524;51.368;11.984;2023-05-14T04:12:28;9.20;;;8.30;;
12912;SDS011;6524;51.368;11.984;2023-05-14T04:17:29;8.95;;;8.15;;
12912;SDS011;6524;51.368;11.984;2023-05-14T04:22:29;8.87;;;7.97;;
12912;SDS011;6524;51.368;11.984;2023-05-14T04:27:31;8.98;;;8.07;;
12912;SDS011;6524;51.368;11.984;2023-05-14T04:32:32;9.52;;;8.60;;
12912;SDS011;6524;51.368;11.984;2023-05-14T04:37:33;9.55;;;8.73;;
12912;SDS011;6524;51.368;11.984;2023-05-14T04:42:33;9.48;;;8.68;;
12912;SDS011;6524;51.368;11.984;2023-05-14T04:47:33;9.52;;;8.65;;
12912;SDS011;6524;51.368;11.984;2023-05-14T04:52:34;9.65;;;8.60;;
12912;SDS011;6524;51.368;11.984;2023-05-14T04:57:35;9.38;;;8.48;;
12912;SDS011;6524;51.368;11.984;2023-05-14T05:02:35;9.00;;;8.20;;
12912;SDS011;6524;51.368;11.984;2023-05-14T05:07:36;11.05;;;9.27;;
12912;SDS011;6524;51.368;11.984;2023-05-14T05:12:36;9.73;;;8.93;;
12912;SDS011;6524;51.368;11.984;2023-05-14T05:17:37;9.80;;;8.80;;
12912;SDS011;6524;51.368;11.984;2023-05-14T05:22:37;9.15;;;8.35;;
12912;SDS011;6524;51.368;11.984;2023-05-14T05:27:38;9.50;;;8.50;;
12912;SDS011;6524;51.368;11.984;2023-05-14T05:32:38;9.15;;;8.35;;
12912;SDS011;6524;51.368;11.984;2023-05-14T05:37:40;9.68;;;8.77;;
12912;SDS011;6524;51.368;11.984;2023-05-14T05:42:41;9.27;;;8.38;;
12912;SDS011;6524;51.368;11.984;2023-05-14T05:47:42;9.10;;;8.30;;
12912;SDS011;6524;51.368;11.984;2023-05-14T05:52:42;9.25;;;8.45;;
12912;SDS011;6524;51.368;11.984;2023-05-14T05:57:43;9.40;;;8.18;;
12912;SDS011;6524;51.368;11.984;2023-05-14T06:02:47;8.82;;;8.02;;
12912;SDS011;6524;51.368;11.984;2023-05-14T06:07:48;8.43;;;7.70;;
12912;SDS011;6524;51.368;11.984;2023-05-14T06:12:48;9.10;;;8.20;;
12912;SDS011;6524;51.368;11.984;2023-05-14T06:17:49;8.73;;;7.75;;
12912;SDS011;6524;51.368;11.984;2023-05-14T07:04:18;10.18;;;8.20;;
12912;SDS011;6524;51.368;11.984;2023-05-14T07:09:18;8.98;;;8.07;;
12912;SDS011;6524;51.368;11.984;2023-05-14T07:14:21;9.07;;;8.27;;
12912;SDS011;6524;51.368;11.984;2023-05-14T07:19:22;7.90;;;7.30;;
12912;SDS011;6524;51.368;11.984;2023-05-14T07:24:22;7.78;;;7.07;;
12912;SDS011;6524;51.368;11.984;2023-05-14T07:29:26;7.72;;;6.93;;
12912;SDS011;6524;51.368;11.984;2023-05-14T07:34:27;8.15;;;7.32;;
12912;SDS011;6524;51.368;11.984;2023-05-14T07:39:28;9.18;;;7.60;;
12912;SDS011;6524;51.368;11.984;2023-05-14T07:44:31;7.75;;;7.05;;
12912;SDS011;6524;51.368;11.984;2023-05-14T07:49:32;7.40;;;6.80;;
12912;SDS011;6524;51.368;11.984;2023-05-14T07:54:35;8.55;;;7.95;;
12912;SDS011;6524;51.368;11.984;2023-05-14T07:59:35;7.97;;;7.28;;
12912;SDS011;6524;51.368;11.984;2023-05-14T08:04:36;7.47;;;6.72;;
12912;SDS011;6524;51.368;11.984;2023-05-14T08:09:37;6.90;;;6.40;;
12912;SDS011;6524;51.368;11.984;2023-05-14T08:14:37;7.55;;;6.85;;
12912;SDS011;6524;51.368;11.984;2023-05-14T08:19:41;8.30;;;6.47;;
12912;SDS011;6524;51.368;11.984;2023-05-14T08:24:41;10.27;;;6.35;;
12912;SDS011;6524;51.368;11.984;2023-05-14T08:29:42;7.63;;;6.07;;
12912;SDS011;6524;51.368;11.984;2023-05-14T08:34:42;7.25;;;6.55;;
12912;SDS011;6524;51.368;11.984;2023-05-14T08:39:43;7.60;;;6.28;;
12912;SDS011;6524;51.368;11.984;2023-05-14T08:44:47;7.75;;;5.88;;
12912;SDS011;6524;51.368;11.984;2023-05-14T08:49:56;6.93;;;6.32;;
12912;SDS011;6524;51.368;11.984;2023-05-14T08:55:05;7.35;;;6.40;;
12912;SDS011;6524;51.368;11.984;2023-05-14T09:00:07;6.80;;;6.20;;
12912;SDS011;6524;51.368;11.984;2023-05-14T09:05:10;7.57;;;6.88;;
12912;SDS011;6524;51.368;11.984;2023-05-14T09:10:11;6.78;;;6.05;;
12912;SDS011;6524;51.368;11.984;2023-05-14T09:15:12;7.38;;;6.78;;
12912;SDS011;6524;51.368;11.984;2023-05-14T09:20:12;7.30;;;6.50;;
12912;SDS011;6524;51.368;11.984;2023-05-14T09:25:14;7.10;;;6.50;;
12912;SDS011;6524;51.368;11.984;2023-05-14T09:30:14;6.82;;;6.20;;
12912;SDS011;6524;51.368;11.984;2023-05-14T09:35:21;8.02;;;6.30;;
12912;SDS011;6524;51.368;11.984;2023-05-14T09:40:24;6.68;;;6.10;;
12912;SDS011;6524;51.368;11.984;2023-05-14T09:45:25;6.95;;;6.45;;
12912;SDS011;6524;51.368;11.984;2023-05-14T09:50:25;6.80;;;6.20;;
12912;SDS011;6524;51.368;11.984;2023-05-14T09:55:26;7.10;;;6.40;;
12912;SDS011;6524;51.368;11.984;2023-05-14T10:00:28;6.65;;;6.05;;
12912;SDS011;6524;51.368;11.984;2023-05-14T10:05:36;6.70;;;6.10;;
12912;SDS011;6524;51.368;11.984;2023-05-14T10:10:39;6.13;;;5.65;;
12912;SDS011;6524;51.368;11.984;2023-05-14T10:21:08;6.75;;;6.10;;
12912;SDS011;6524;51.368;11.984;2023-05-14T10:26:10;6.35;;;5.75;;
12912;SDS011;6524;51.368;11.984;2023-05-14T10:31:12;6.38;;;5.78;;
12912;SDS011;6524;51.368;11.984;2023-05-14T10:36:12;6.50;;;5.78;;
12912;SDS011;6524;51.368;11.984;2023-05-14T10:41:13;6.53;;;5.97;;
12912;SDS011;6524;51.368;11.984;2023-05-14T10:46:19;6.20;;;5.70;;
12912;SDS011;6524;51.368;11.984;2023-05-14T10:51:20;6.50;;;5.90;;
12912;SDS011;6524;51.368;11.984;2023-05-14T10:56:22;6.22;;;5.63;;
12912;SDS011;6524;51.368;11.984;2023-05-14T11:01:22;6.45;;;5.88;;
12912;SDS011;6524;51.368;11.984;2023-05-14T11:06:23;6.57;;;5.97;;
12912;SDS011;6524;51.368;11.984;2023-05-14T11:11:25;6.95;;;6.35;;
12912;SDS011;6524;51.368;11.984;2023-05-14T11:16:26;7.03;;;6.28;;
12912;SDS011;6524;51.368;11.984;2023-05-14T11:21:30;6.90;;;6.30;;
12912;SDS011;6524;51.368;11.984;2023-05-14T11:26:31;6.70;;;6.20;;
12912;SDS011;6524;51.368;11.984;2023-05-14T11:31:33;7.00;;;6.32;;
12912;SDS011;6524;51.368;11.984;2023-05-14T11:36:37;6.78;;;6.20;;
12912;SDS011;6524;51.368;11.984;2023-05-14T11:41:42;6.70;;;6.10;;
12912;SDS011;6524;51.368;11.984;2023-05-14T11:46:52;6.78;;;6.18;;
12912;SDS011;6524;51.368;11.984;2023-05-14T11:51:57;7.78;;;6.18;;
12912;SDS011;6524;51.368;11.984;2023-05-14T11:56:59;6.45;;;5.82;;
12912;SDS011;6524;51.368;11.984;2023-05-14T12:02:10;6.30;;;5.70;;
12912;SDS011;6524;51.368;11.984;2023-05-14T12:07:13;5.80;;;5.40;;
12912;SDS011;6524;51.368;11.984;2023-05-14T12:12:16;6.38;;;5.80;;
12912;SDS011;6524;51.368;11.984;2023-05-14T12:17:20;6.68;;;6.03;;
12912;SDS011;6524;51.368;11.984;2023-05-14T12:22:22;6.40;;;5.90;;
12912;SDS011;6524;51.368;11.984;2023-05-14T12:27:23;6.45;;;5.85;;
12912;SDS011;6524;51.368;11.984;2023-05-14T12:32:25;7.10;;;6.07;;
12912;SDS011;6524;51.368;11.984;2023-05-14T12:37:26;6.80;;;5.90;;
12912;SDS011;6524;51.368;11.984;2023-05-14T12:42:27;6.93;;;6.32;;
12912;SDS011;6524;51.368;11.984;2023-05-14T12:47:28;6.65;;;6.05;;
12912;SDS011;6524;51.368;11.984;2023-05-14T12:52:28;6.75;;;6.15;;
12912;SDS011;6524;51.368;11.984;2023-05-14T12:57:29;6.90;;;6.30;;
12912;SDS011;6524;51.368;11.984;2023-05-14T13:02:30;6.20;;;5.57;;
12912;SDS011;6524;51.368;11.984;2023-05-14T13:07:31;6.00;;;5.32;;
12912;SDS011;6524;51.368;11.984;2023-05-14T13:12:31;6.25;;;5.65;;
12912;SDS011;6524;51.368;11.984;2023-05-14T13:17:32;6.05;;;5.50;;
12912;SDS011;6524;51.368;11.984;2023-05-14T13:22:32;5.97;;;5.38;;
12912;SDS011;6524;51.368;11.984;2023-05-14T13:27:33;8.35;;;7.20;;
12912;SDS011;6524;51.368;11.984;2023-05-14T13:32:35;5.68;;;5.28;;
12912;SDS011;6524;51.368;11.984;2023-05-14T13:37:36;5.15;;;4.80;;
12912;SDS011;6524;51.368;11.984;2023-05-14T13:42:37;6.25;;;5.65;;
12912;SDS011;6524;51.368;11.984;2023-05-14T13:47:40;5.85;;;5.35;;
12912;SDS011;6524;51.368;11.984;2023-05-14T13:52:41;5.82;;;5.32;;
12912;SDS011;6524;51.368;11.984;2023-05-14T13:57:42;6.15;;;5.65;;
12912;SDS011;6524;51.368;11.984;2023-05-14T14:02:43;6.22;;;5.72;;
12912;SDS011;6524;51.368;11.984;2023-05-14T14:07:43;6.90;;;6.30;;
12912;SDS011;6524;51.368;11.984;2023-05-14T14:12:44;6.70;;;6.10;;
12912;SDS011;6524;51.368;11.984;2023-05-14T14:17:44;6.10;;;5.60;;
12912;SDS011;6524;51.368;11.984;2023-05-14T14:22:45;6.82;;;5.80;;
12912;SDS011;6524;51.368;11.984;2023-05-14T14:27:45;6.28;;;5.68;;
12912;SDS011;6524;51.368;11.984;2023-05-14T14:32:46;6.40;;;5.90;;
12912;SDS011;6524;51.368;11.984;2023-05-14T14:37:48;6.13;;;5.63;;
12912;SDS011;6524;51.368;11.984;2023-05-14T14:42:49;6.75;;;6.15;;
12912;SDS011;6524;51.368;11.984;2023-05-14T14:47:50;6.18;;;5.68;;
12912;SDS011;6524;51.368;11.984;2023-05-14T14:52:50;6.43;;;5.85;;
12912;SDS011;6524;51.368;11.984;2023-05-14T14:57:50;6.32;;;5.82;;
12912;SDS011;6524;51.368;11.984;2023-05-14T15:02:51;6.00;;;5.47;;
12912;SDS011;6524;51.368;11.984;2023-05-14T15:07:51;6.53;;;5.93;;
12912;SDS011;6524;51.368;11.984;2023-05-14T15:12:51;5.55;;;5.13;;
12912;SDS011;6524;51.368;11.984;2023-05-14T15:17:52;6.65;;;6.05;;
12912;SDS011;6524;51.368;11.984;2023-05-14T15:22:52;6.05;;;5.55;;
12912;SDS011;6524;51.368;11.984;2023-05-14T15:27:53;6.03;;;5.53;;
12912;SDS011;6524;51.368;11.984;2023-05-14T15:32:54;5.00;;;4.60;;
12912;SDS011;6524;51.368;11.984;2023-05-14T15:37:55;4.53;;;4.13;;
12912;SDS011;6524;51.368;11.984;2023-05-14T15:42:58;4.20;;;3.90;;
12912;SDS011;6524;51.368;11.984;2023-05-14T15:47:58;5.10;;;4.70;;
12912;SDS011;6524;51.368;11.984;2023-05-14T15:52:59;4.85;;;3.90;;
12912;SDS011;6524;51.368;11.984;2023-05-14T15:57:59;4.25;;;3.95;;
12912;SDS011;6524;51.368;11.984;2023-05-14T16:02:59;4.60;;;4.20;;
12912;SDS011;6524;51.368;11.984;2023-05-14T16:08:00;5.10;;;4.60;;
12912;SDS011;6524;51.368;11.984;2023-05-14T16:13:00;4.88;;;4.45;;
12912;SDS011;6524;51.368;11.984;2023-05-14T16:18:01;5.35;;;4.95;;
12912;SDS011;6524;51.368;11.984;2023-05-14T16:23:01;5.72;;;5.13;;
12912;SDS011;6524;51.368;11.984;2023-05-14T16:28:01;5.03;;;4.63;;
12912;SDS011;6524;51.368;11.984;2023-05-14T16:33:02;5.65;;;5.05;;
12912;SDS011;6524;51.368;11.984;2023-05-14T16:38:02;5.28;;;4.88;;
12912;SDS011;6524;51.368;11.984;2023-05-14T16:43:03;5.78;;;5.28;;
12912;SDS011;6524;51.368;11.984;2023-05-14T16:48:03;6.13;;;5.22;;
12912;SDS011;6524;51.368;11.984;2023-05-14T16:53:04;5.22;;;4.82;;
12912;SDS011;6524;51.368;11.984;2023-05-14T16:58:04;5.30;;;4.90;;
12912;SDS011;6524;51.368;11.984;2023-05-14T17:03:12;6.80;;;5.68;;
12912;SDS011;6524;51.368;11.984;2023-05-14T17:08:12;5.75;;;5.25;;
12912;SDS011;6524;51.368;11.984;2023-05-14T17:13:13;6.10;;;5.60;;
12912;SDS011;6524;51.368;11.984;2023-05-14T17:18:13;5.75;;;5.22;;
12912;SDS011;6524;51.368;11.984;2023-05-14T17:23:14;5.95;;;5.53;;
12912;SDS011;6524;51.368;11.984;2023-05-14T17:28:15;5.88;;;5.38;;
12912;SDS011;6524;51.368;11.984;2023-05-14T17:33:15;5.90;;;5.35;;
12912;SDS011;6524;51.368;11.984;2023-05-14T17:38:16;6.60;;;6.00;;
12912;SDS011;6524;51.368;11.984;2023-05-14T17:43:16;6.10;;;5.60;;
12912;SDS011;6524;51.368;11.984;2023-05-14T17:48:16;6.30;;;5.80;;
12912;SDS011;6524;51.368;11.984;2023-05-14T17:53:17;5.80;;;5.30;;
12912;SDS011;6524;51.368;11.984;2023-05-14T17:58:19;5.97;;;5.47;;
12912;SDS011;6524;51.368;11.984;2023-05-14T18:03:20;6.10;;;5.28;;
12912;SDS011;6524;51.368;11.984;2023-05-14T18:08:20;5.60;;;5.10;;
12912;SDS011;6524;51.368;11.984;2023-05-14T18:13:21;5.18;;;4.78;;
12912;SDS011;6524;51.368;11.984;2023-05-14T18:18:21;5.00;;;4.60;;
12912;SDS011;6524;51.368;11.984;2023-05-14T18:23:22;4.75;;;4.35;;
12912;SDS011;6524;51.368;11.984;2023-05-14T18:28:26;4.85;;;4.30;;
12912;SDS011;6524;51.368;11.984;2023-05-14T18:33:27;4.50;;;4.10;;
12912;SDS011;6524;51.368;11.984;2023-05-14T18:38:28;4.30;;;4.00;;
12912;SDS011;6524;51.368;11.984;2023-05-14T18:43:28;4.57;;;4.10;;
12912;SDS011;6524;51.368;11.984;2023-05-14T18:48:29;5.20;;;4.70;;
12912;SDS011;6524;51.368;11.984;2023-05-14T18:53:30;4.10;;;3.80;;
12912;SDS011;6524;51.368;11.984;2023-05-14T18:58:31;4.68;;;4.00;;
12912;SDS011;6524;51.368;11.984;2023-05-14T19:03:31;4.28;;;3.88;;
12912;SDS011;6524;51.368;11.984;2023-05-14T19:08:31;4.20;;;3.90;;
12912;SDS011;6524;51.368;11.984;2023-05-14T19:13:32;4.60;;;4.20;;
12912;SDS011;6524;51.368;11.984;2023-05-14T19:18:32;5.50;;;4.35;;
12912;SDS011;6524;51.368;11.984;2023-05-14T19:23:33;6.50;;;4.30;;
12912;SDS011;6524;51.368;11.984;2023-05-14T19:28:34;6.00;;;4.80;;
12912;SDS011;6524;51.368;11.984;2023-05-14T19:33:36;4.75;;;4.35;;
12912;SDS011;6524;51.368;11.984;2023-05-14T19:38:37;5.28;;;4.78;;
12912;SDS011;6524;51.368;11.984;2023-05-14T19:43:38;5.18;;;4.47;;
12912;SDS011;6524;51.368;11.984;2023-05-14T19:48:39;4.80;;;4.38;;
12912;SDS011;6524;51.368;11.984;2023-05-14T19:53:40;4.68;;;4.20;;
12912;SDS011;6524;51.368;11.984;2023-05-14T19:58:40;4.82;;;4.18;;
12912;SDS011;6524;51.368;11.984;2023-05-14T20:03:40;4.80;;;4.40;;
12912;SDS011;6524;51.368;11.984;2023-05-14T20:08:41;4.75;;;4.30;;
12912;SDS011;6524;51.368;11.984;2023-05-14T20:13:41;4.65;;;4.25;;
12912;SDS011;6524;51.368;11.984;2023-05-14T20:18:42;5.50;;;4.70;;
12912;SDS011;6524;51.368;11.984;2023-05-14T20:23:42;5.30;;;4.80;;
12912;SDS011;6524;51.368;11.984;2023-05-14T20:28:43;4.70;;;4.30;;
12912;SDS011;6524;51.368;11.984;2023-05-14T20:33:43;5.35;;;4.53;;
12912;SDS011;6524;51.368;11.984;2023-05-14T20:38:43;5.05;;;4.65;;
12912;SDS011;6524;51.368;11.984;2023-05-14T20:43:44;5.10;;;4.60;;
12912;SDS011;6524;51.368;11.984;2023-05-14T20:48:45;4.83;;;4.27;;
12912;SDS011;6524;51.368;11.984;2023-05-14T20:53:47;5.45;;;4.95;;
12912;SDS011;6524;51.368;11.984;2023-05-14T20:58:47;5.22;;;4.72;;
12912;SDS011;6524;51.368;11.984;2023-05-14T21:03:47;5.45;;;4.88;;
12912;SDS011;6524;51.368;11.984;2023-05-14T21:08:48;5.55;;;5.05;;
12912;SDS011;6524;51.368;11.984;2023-05-14T21:13:48;5.10;;;4.60;;
12912;SDS011;6524;51.368;11.984;2023-05-14T21:18:48;5.03;;;4.63;;
12912;SDS011;6524;51.368;11.984;2023-05-14T21:23:49;5.63;;;5.03;;
12912;SDS011;6524;51.368;11.984;2023-05-14T21:28:49;5.43;;;5.00;;
12912;SDS011;6524;51.368;11.984;2023-05-14T21:33:50;5.85;;;5.35;;
12912;SDS011;6524;51.368;11.984;2023-05-14T21:38:51;5.70;;;5.20;;
12912;SDS011;6524;51.368;11.984;2023-05-14T21:43:52;6.22;;;5.32;;
12912;SDS011;6524;51.368;11.984;2023-05-14T21:48:52;5.93;;;5.32;;
12912;SDS011;6524;51.368;11.984;2023-05-14T21:53:52;5.93;;;5.32;;
12912;SDS011;6524;51.368;11.984;2023-05-14T21:58:53;5.93;;;5.35;;
12912;SDS011;6524;51.368;11.984;2023-05-14T22:03:54;6.50;;;5.90;;
12912;SDS011;6524;51.368;11.984;2023-05-14T22:08:55;6.20;;;5.67;;
12912;SDS011;6524;51.368;11.984;2023-05-14T22:13:56;6.53;;;5.93;;
12912;SDS011;6524;51.368;11.984;2023-05-14T22:18:56;6.68;;;6.07;;
12912;SDS011;6524;51.368;11.984;2023-05-14T22:23:56;6.63;;;5.93;;
12912;SDS011;6524;51.368;11.984;2023-05-14T22:28:57;6.27;;;5.73;;
12912;SDS011;6524;51.368;11.984;2023-05-14T22:33:57;5.88;;;5.38;;
12912;SDS011;6524;51.368;11.984;2023-05-14T22:38:57;6.50;;;5.90;;
12912;SDS011;6524;51.368;11.984;2023-05-14T22:43:58;6.30;;;5.80;;
12912;SDS011;6524;51.368;11.984;2023-05-14T22:48:58;6.70;;;6.10;;
12912;SDS011;6524;51.368;11.984;2023-05-14T22:53:59;7.07;;;6.38;;
12912;SDS011;6524;51.368;11.984;2023-05-14T22:58:59;7.03;;;6.43;;
12912;SDS011;6524;51.368;11.984;2023-05-14T23:04:00;7.63;;;6.93;;
